Springview, Nebraska
Current Conditions -  °F | °C
As of 1:15 AM on Saturday 20 Dec 2014 (Local Time) from KANW Reporting Station
Clear Clear  
Wind Chill: 12°   Ceiling: Unl
Heat Index: 20°   Visibility: 10mi
Dew Point: 16°   Wind: 6mph
Humidity: 85%   Direction: 250°WSW
Pressure: 29.97"   Gusts: NA
Location:  42.82°N, 99.75°W
Report Text: KANW 200715Z AUTO 25005KT 10SM CLR M07/M09 A2997 RMK AO2 T10671088
Loading
Personal Weather Stations






























Interactive Weather Map New forecast layout! Learn more

10-Day Weather Forecast

Advertisements
Track Severe Weather on mobile